createdAt,value
2019-03-22T12:08:08.377Z,24.32
2019-03-22T14:55:39.691Z,25.83
2019-03-22T14:58:43.866Z,25.79
2019-03-22T15:01:39.584Z,26.03
2019-03-22T15:04:04.996Z,25.98
2019-03-22T15:05:07.996Z,25.98
2019-03-22T15:06:11.048Z,25.88
2019-03-22T15:07:19.323Z,25.81
2019-03-22T15:08:22.941Z,25.74
2019-03-22T15:09:26.028Z,25.59
2019-03-22T15:10:29.100Z,25.69
2019-03-22T15:11:32.177Z,25.71
2019-03-22T15:12:35.194Z,25.72
2019-03-22T15:13:38.232Z,25.65
2019-03-22T15:14:41.311Z,25.65
2019-03-22T15:15:44.318Z,25.67
2019-03-22T15:16:47.371Z,25.64
2019-03-22T15:17:50.450Z,25.59
2019-03-22T15:18:53.424Z,25.41
2019-03-22T15:19:56.503Z,25.36
2019-03-22T15:20:59.612Z,25.3
2019-03-22T15:22:02.623Z,25.43
2019-03-22T15:23:05.635Z,25.46
2019-03-22T15:24:08.714Z,25.37
2019-03-22T15:25:11.690Z,25.36
2019-03-22T15:26:14.767Z,25.44
2019-03-22T15:27:17.849Z,25.46
2019-03-22T15:28:20.927Z,25.47
2019-03-22T15:29:24.039Z,25.48
2019-03-22T15:30:27.086Z,25.46
2019-03-22T15:31:30.161Z,25.47
2019-03-22T15:32:33.246Z,25.38
2019-03-22T15:33:36.471Z,25.35
2019-03-22T15:34:39.607Z,25.22
2019-03-22T15:35:42.706Z,25.28
2019-03-22T15:36:45.766Z,25.33
2019-03-22T15:37:48.845Z,25.35
2019-03-22T15:38:52.162Z,25.38
2019-03-22T15:39:55.409Z,25.31
2019-03-22T15:40:58.489Z,25.28
2019-03-22T15:42:01.572Z,25.27
2019-03-22T15:43:04.645Z,25.3
2019-03-22T15:44:07.792Z,25.26
2019-03-22T15:45:11.089Z,25.1
2019-03-22T15:46:14.191Z,25.17
2019-03-22T15:47:17.267Z,25.21
2019-03-22T15:48:20.347Z,25.24
2019-03-22T15:49:23.424Z,25.25
2019-03-22T15:50:26.504Z,25.23
2019-03-22T15:51:29.668Z,25.19
2019-03-22T15:52:32.670Z,25.21
2019-03-22T15:53:35.742Z,25.24
2019-03-22T15:54:38.821Z,25.22
2019-03-22T15:55:41.797Z,25.24
2019-03-22T15:56:44.771Z,25.16
2019-03-22T15:57:47.757Z,25.11
2019-03-22T15:58:50.931Z,25.15
2019-03-22T15:59:54.215Z,25.25
2019-03-22T16:00:57.294Z,25.33
2019-03-22T16:02:00.384Z,25.39
2019-03-22T16:03:03.454Z,25.41
2019-03-22T16:11:53.274Z,25.42
2019-03-22T16:12:56.248Z,25.44
2019-03-22T16:13:59.429Z,25.43
2019-03-22T16:15:02.507Z,25.47
2019-03-22T16:16:05.587Z,25.49
2019-03-22T16:17:08.665Z,25.5
2019-03-22T16:18:11.646Z,25.51
2019-03-22T16:19:14.619Z,25.5
2019-03-22T16:20:17.800Z,25.53
2019-03-22T16:21:20.777Z,25.49
2019-03-22T16:22:23.826Z,25.48
2019-03-22T16:23:26.935Z,25.46
2019-03-22T16:24:30.000Z,25.43
2019-03-22T16:25:33.091Z,25.4
2019-03-22T16:26:36.688Z,25.42
2019-03-22T16:27:41.713Z,25.43
2019-03-22T16:28:44.992Z,25.42
2019-03-22T16:29:48.034Z,25.4
2019-03-22T16:30:51.046Z,25.31
2019-03-22T16:31:54.023Z,25.24
2019-03-22T16:32:57.024Z,25.21
2019-03-22T16:34:00.019Z,25.2
2019-03-22T16:35:03.014Z,25.18
2019-03-22T16:36:06.031Z,25.17
2019-03-22T16:37:08.976Z,25.16
2019-03-22T16:38:12.087Z,25.14
2019-03-22T16:39:15.064Z,25.12
2019-03-22T16:40:24.025Z,25.11
2019-03-22T16:41:27.466Z,25.08
2019-03-22T16:42:30.545Z,25.09
2019-03-22T16:43:33.623Z,25.04
2019-03-22T16:44:36.702Z,25.05
2019-03-22T16:45:39.781Z,25.02
2019-03-22T16:46:43.066Z,24.99
2019-03-22T16:47:46.144Z,24.96
2019-03-22T16:48:49.223Z,24.96
2019-03-22T16:49:52.301Z,24.94
2019-03-22T16:50:55.284Z,24.93
2019-03-22T16:51:58.362Z,24.91
2019-03-22T16:53:01.435Z,24.89
2019-03-22T16:54:04.485Z,24.16
2019-03-22T16:55:07.696Z,23.62
2019-03-22T16:56:10.775Z,22.97
2019-03-22T16:57:13.854Z,22.86
2019-03-22T16:58:17.045Z,22.86
2019-03-22T16:59:20.111Z,22.54
2019-03-22T17:00:23.102Z,22.48
2019-03-22T17:01:26.170Z,22.77
2019-03-22T17:02:29.144Z,22.56
2019-03-22T17:03:32.327Z,22.31
2019-03-22T17:04:35.407Z,22.02
2019-03-22T17:05:38.484Z,22.31
2019-03-22T17:06:41.569Z,22.17
2019-03-22T17:07:44.639Z,22.38
2019-03-22T17:08:47.630Z,21.97
2019-03-22T17:09:50.698Z,21.69
2019-03-22T17:10:53.676Z,22.05
2019-03-22T17:11:56.752Z,21.69
2019-03-22T17:12:59.736Z,21.68
2019-03-22T17:14:02.750Z,21.25
2019-03-22T17:15:05.887Z,21.07
2019-03-22T17:16:08.969Z,20.85
2019-03-22T17:17:12.058Z,20.85
2019-03-22T17:18:15.021Z,21.25
2019-03-22T17:19:18.101Z,21.18
2019-03-22T17:20:21.179Z,21.13
2019-03-22T17:21:24.259Z,21.82
2019-03-22T17:22:27.336Z,21.83
2019-03-22T17:23:31.443Z,22.14
2019-03-22T17:24:34.457Z,22.04
2019-03-22T17:25:37.597Z,21.6
2019-03-22T17:26:40.663Z,21.3
2019-03-22T17:27:43.665Z,21.99
2019-03-22T17:28:46.734Z,22.49
2019-03-22T17:29:49.768Z,22.78
2019-03-22T17:30:53.186Z,22.98
2019-03-22T17:31:56.329Z,23.09
2019-03-22T17:32:59.331Z,23.11
2019-03-22T17:34:02.406Z,23.13
2019-03-22T17:35:05.592Z,23.14
2019-03-22T17:36:09.307Z,23.16
2019-03-22T17:37:12.386Z,23.21
2019-03-22T17:38:16.483Z,23.18
2019-03-22T17:39:19.594Z,23.17
2019-03-22T17:40:22.646Z,23.17
2019-03-22T17:41:25.712Z,23.21
2019-03-22T17:42:28.805Z,23.17
2019-03-22T17:43:31.780Z,23.17
2019-03-22T17:44:34.862Z,23.19
2019-03-22T17:45:37.842Z,23.16
2019-03-22T17:46:40.940Z,23.23
2019-03-22T17:47:43.994Z,23.2
2019-03-22T17:48:47.176Z,23.08
2019-03-22T17:49:50.152Z,23.11
2019-03-22T17:50:53.230Z,23.03
2019-03-22T17:51:57.733Z,22.94
2019-03-22T17:53:01.849Z,23.06
2019-03-22T17:54:05.026Z,22.83
2019-03-22T17:55:08.043Z,22.73
2019-03-22T17:56:11.144Z,22.59
2019-03-22T17:57:18.519Z,22.91
2019-03-22T17:58:22.257Z,23.06
2019-03-22T17:59:25.282Z,23.16
2019-03-22T18:00:28.334Z,23.2
2019-03-22T18:01:32.021Z,23.21
2019-03-22T18:02:35.418Z,23.26
2019-03-22T18:03:38.574Z,23.29
2019-03-22T18:04:41.574Z,23.28
2019-03-22T18:05:44.629Z,23.3
2019-03-22T18:06:47.810Z,23.29
2019-03-22T18:07:50.889Z,23.28
2019-03-22T18:08:54.960Z,23.28
2019-03-22T18:10:01.863Z,23.22
2019-03-22T18:11:04.939Z,23
2019-03-22T18:12:07.916Z,22.99
2019-03-22T18:13:10.898Z,22.62
2019-03-22T18:14:13.869Z,22.69
2019-03-22T18:15:16.950Z,22.88
2019-03-22T18:16:19.925Z,23.01
2019-03-22T18:17:23.001Z,22.98
2019-03-22T18:18:26.080Z,22.91
2019-03-22T18:19:29.056Z,22.97
2019-03-22T18:20:32.135Z,22.98
2019-03-22T18:21:35.112Z,23.03
2019-03-22T18:22:38.067Z,23.01
2019-03-22T18:23:41.074Z,23.04
2019-03-22T18:24:44.143Z,23.09
2019-03-22T18:25:47.120Z,23.12
2019-03-22T18:26:50.205Z,23.15
2019-03-22T18:27:53.279Z,23.17
2019-03-22T18:28:56.357Z,23.18
2019-03-22T18:29:59.334Z,23.17
2019-03-22T18:31:02.411Z,23.13
2019-03-22T18:32:05.490Z,23.14
2019-03-22T18:33:08.570Z,23.14
2019-03-22T18:34:11.648Z,23.16
2019-03-22T18:35:14.627Z,23.15
2019-03-22T18:36:17.603Z,23.15
2019-03-22T18:37:20.680Z,23.13
2019-03-22T18:38:23.759Z,23.14
2019-03-22T18:39:26.838Z,23.14
2019-03-22T18:40:29.819Z,23.14
2019-03-22T18:41:32.792Z,23.14
2019-03-22T18:42:35.801Z,23.14
2019-03-22T18:43:38.846Z,23.15
2019-03-22T18:44:41.824Z,23.14
2019-03-22T18:45:44.798Z,23.12
2019-03-22T18:46:47.776Z,23.11
2019-03-22T18:47:50.854Z,23.12
2019-03-22T18:48:53.843Z,23.11
2019-03-22T18:49:56.910Z,23.13
2019-03-22T18:50:59.886Z,23.12
2019-03-22T18:52:02.966Z,23.11
2019-03-22T18:53:06.155Z,23.09
2019-03-22T18:54:09.236Z,23.09
2019-03-22T18:55:12.246Z,23.09
2019-03-22T18:56:15.381Z,23.08
2019-03-22T18:57:18.375Z,23.09
2019-03-22T18:58:23.765Z,22.89
2019-03-22T18:59:28.000Z,22.91
2019-03-22T19:00:30.977Z,22.46
2019-03-22T19:01:34.017Z,22.3
2019-03-22T19:02:37.029Z,22.19
2019-03-22T19:03:40.095Z,22.12
2019-03-22T19:04:44.265Z,22.13
2019-03-22T19:05:47.598Z,22.09
2019-03-22T19:06:50.678Z,22.05
2019-03-22T19:07:53.755Z,22.01
2019-03-22T19:08:56.835Z,22.02
2019-03-22T19:09:59.846Z,21.96
2019-03-22T19:11:02.991Z,22.02
2019-03-22T19:12:05.968Z,22.01
2019-03-22T19:13:08.947Z,21.9
2019-03-22T19:14:12.022Z,22
2019-03-22T19:15:15.106Z,21.9
2019-03-22T19:16:18.083Z,21.87
2019-03-22T19:17:21.273Z,21.96
2019-03-22T19:18:24.343Z,22.1
2019-03-22T19:19:27.421Z,22.07
2019-03-22T19:20:30.395Z,22.01
2019-03-22T19:21:33.398Z,22.05
2019-03-22T19:22:36.449Z,21.96
2019-03-22T19:23:39.529Z,21.9
2019-03-22T19:24:42.606Z,21.9
2019-03-22T19:25:45.615Z,21.9
2019-03-22T19:26:48.662Z,21.83
2019-03-22T19:27:51.843Z,21.81
2019-03-22T19:28:54.820Z,21.81
2019-03-22T19:29:58.002Z,21.81
2019-03-22T19:31:01.081Z,21.77
2019-03-22T19:32:13.204Z,21.82
2019-03-22T19:33:16.658Z,21.83
2019-03-22T19:34:19.852Z,21.81
2019-03-22T19:35:23.126Z,21.83
2019-03-22T19:36:26.240Z,21.98
2019-03-22T19:37:29.464Z,21.81
2019-03-22T19:38:32.559Z,21.74
2019-03-22T19:39:35.643Z,21.75
2019-03-22T19:40:38.826Z,21.6
2019-03-22T19:41:41.906Z,21.59
2019-03-22T19:42:44.984Z,21.51
2019-03-22T19:43:48.062Z,21.5
2019-03-22T19:44:51.242Z,21.5
2019-03-22T19:45:54.338Z,21.5
2019-03-22T19:46:57.605Z,21.46
2019-03-22T19:48:00.680Z,21.46
2019-03-22T19:49:03.864Z,21.52
2019-03-22T19:50:06.999Z,21.53
2019-03-22T19:51:10.227Z,21.42
2019-03-22T19:52:13.219Z,21.44
2019-03-22T19:53:16.182Z,21.47
2019-03-22T19:54:19.362Z,21.41
2019-03-22T19:55:22.441Z,21.33
2019-03-22T19:56:25.521Z,21.34
2019-03-22T19:57:28.566Z,21.33
2019-03-22T19:58:31.698Z,21.42
2019-03-22T19:59:34.856Z,21.34
2019-03-22T20:00:37.900Z,21.35
2019-03-22T20:01:40.914Z,21.37
2019-03-22T20:02:44.097Z,21.38
2019-03-22T20:03:47.176Z,21.36
2019-03-22T20:04:50.112Z,21.27
2019-03-22T20:05:53.086Z,21.27
2019-03-22T20:06:56.205Z,21.21
2019-03-22T20:07:59.291Z,21.19
2019-03-22T20:09:02.478Z,21.24
2019-03-22T20:10:05.564Z,21.19
2019-03-22T20:11:08.624Z,21.16
2019-03-22T20:12:11.708Z,21.23
2019-03-22T20:13:14.883Z,21.24
2019-03-22T20:14:18.079Z,21.17
2019-03-22T20:15:21.245Z,21.16
2019-03-22T20:16:24.329Z,21.21
2019-03-22T20:17:27.403Z,21.18
2019-03-22T20:18:30.379Z,21.01
2019-03-22T20:19:33.862Z,21.05
2019-03-22T20:20:37.461Z,21.3
2019-03-22T20:21:41.892Z,21.49
2019-03-22T20:22:44.950Z,21.37
2019-03-22T20:23:53.423Z,21.1
2019-03-22T20:24:59.400Z,21.02
2019-03-22T20:26:02.890Z,21.1
2019-03-22T20:27:05.970Z,20.99
2019-03-22T20:28:08.966Z,20.96
2019-03-22T20:29:11.923Z,21.01
2019-03-22T20:30:14.999Z,20.98
2019-03-22T20:31:18.078Z,20.94
2019-03-22T20:32:21.157Z,20.99
2019-03-22T20:33:24.176Z,21
2019-03-22T20:34:27.213Z,20.87
2019-03-22T20:35:30.291Z,20.89
2019-03-22T20:36:33.374Z,20.84
2019-03-22T20:37:36.452Z,20.87
2019-03-22T20:38:39.527Z,20.92
2019-03-22T20:39:42.523Z,20.86
2019-03-22T20:40:45.482Z,20.9
2019-03-22T20:41:48.566Z,20.95
2019-03-22T20:42:51.643Z,20.82
2019-03-22T20:43:54.719Z,20.74
2019-03-22T20:44:57.801Z,20.85
2019-03-22T20:46:00.976Z,20.94
2019-03-22T20:47:04.157Z,21.05
2019-03-22T20:48:07.237Z,21.09
2019-03-22T20:49:10.318Z,20.97
2019-03-22T20:50:13.398Z,20.92
2019-03-22T20:51:16.373Z,20.94
2019-03-22T20:52:19.348Z,20.95
2019-03-22T20:53:22.530Z,21.01
2019-03-22T20:54:25.710Z,20.88
2019-03-22T20:55:28.790Z,21.16
2019-03-22T20:56:31.766Z,21.16
2019-03-22T20:57:34.742Z,21.2
2019-03-22T20:58:37.719Z,21.38
2019-03-22T20:59:40.797Z,21.38
2019-03-22T21:00:43.775Z,21.22
2019-03-22T21:01:46.810Z,21.25
2019-03-22T21:02:49.728Z,21.32
2019-03-22T21:03:52.719Z,21.33
2019-03-22T21:04:55.883Z,21.23
2019-03-22T21:05:58.867Z,21.13
2019-03-22T21:07:01.941Z,21.23
2019-03-22T21:08:04.917Z,21.14
2019-03-22T21:09:07.995Z,21.21
2019-03-22T21:10:11.298Z,21.22
2019-03-22T21:11:14.356Z,21.1
2019-03-22T21:12:17.544Z,21.1
2019-03-22T21:13:20.518Z,21.05
2019-03-22T21:14:23.594Z,21.13
2019-03-22T21:15:26.672Z,21.08
2019-03-22T21:16:29.751Z,21.08
2019-03-22T21:17:32.730Z,21.06
2019-03-22T21:18:35.806Z,21.01
2019-03-22T21:19:38.887Z,21.01
2019-03-22T21:20:41.966Z,21.04
2019-03-22T21:21:45.045Z,21
2019-03-22T21:22:48.227Z,21.13
2019-03-22T21:23:51.203Z,21.02
2019-03-22T21:24:54.178Z,21.07
2019-03-22T21:25:57.236Z,21.09
2019-03-22T21:27:00.244Z,21.01
2019-03-22T21:28:03.951Z,20.99
2019-03-22T21:29:07.115Z,20.98
2019-03-22T21:30:10.299Z,21.05
2019-03-22T21:31:13.347Z,21.04
2019-03-22T21:32:16.452Z,20.89
2019-03-22T21:33:19.531Z,20.96
2019-03-22T21:34:22.609Z,20.84
2019-03-22T21:35:25.586Z,20.82
2019-03-22T21:36:39.108Z,20.85
2019-03-22T21:37:42.288Z,20.92
2019-03-22T21:38:45.370Z,20.92
2019-03-22T21:39:48.558Z,20.9
2019-03-22T21:40:51.634Z,20.96
2019-03-22T21:41:54.810Z,20.89
2019-03-22T21:42:57.887Z,20.97
2019-03-22T21:44:00.921Z,20.89
2019-03-22T21:45:04.047Z,20.88
2019-03-22T21:46:07.119Z,20.79
2019-03-22T21:47:10.307Z,20.87
2019-03-22T21:48:13.444Z,20.77
2019-03-22T21:49:16.770Z,20.81
2019-03-22T21:50:19.951Z,20.78
2019-03-22T21:51:23.080Z,20.74
2019-03-22T21:52:26.285Z,20.82
2019-03-22T21:53:29.391Z,20.81
2019-03-22T21:54:32.471Z,20.84
2019-03-22T21:55:35.476Z,20.88
2019-03-22T21:56:38.501Z,20.83
2019-03-22T21:57:41.724Z,20.77
2019-03-22T21:58:44.786Z,20.73
2019-03-22T21:59:47.866Z,20.73
2019-03-22T22:00:50.944Z,20.69
2019-03-22T22:01:53.933Z,20.71
2019-03-22T22:02:57.000Z,20.78
2019-03-22T22:03:59.975Z,20.7
2019-03-22T22:05:03.061Z,20.72
2019-03-22T22:06:06.133Z,20.63
2019-03-22T22:07:09.110Z,20.67
2019-03-22T22:08:12.087Z,20.71
2019-03-22T22:09:15.165Z,20.58
2019-03-22T22:10:18.245Z,20.7
2019-03-22T22:11:21.324Z,20.78
2019-03-22T22:12:24.300Z,20.72
2019-03-22T22:13:27.379Z,20.67
2019-03-22T22:14:40.341Z,20.74
2019-03-22T22:15:43.967Z,21.18
2019-03-22T22:16:47.061Z,21.32
2019-03-22T22:17:50.143Z,21.5
2019-03-22T22:18:54.484Z,21.71
